Terminal Aerodrome Forecast (TAF)

TAF

Data at: 1120 UTC 20 Feb 2019

TAF for:NVSC (Sola/Vanua Lava Arpt, --, NV) issued at 1000 UTC 20 Feb 2019
Text:TAF NVSC 201000Z 2012/2112 31510G20KT 9999 SCT020 INTER 2012/2018 8000 SHRA BKN018
Forecast period:1200 UTC 20 February 2019 to 1200 UTC 21 February 2019
Forecast type:FROM: standard forecast or significant change
Winds:from the NW (315 degrees) at 12 MPH (10 knots; 5.1 m/s) gusting to 23 MPH (20 knots; 10.3 m/s)
Visibility:6 or more sm (10+ km)
Ceiling:at least 12,000 feet AGL
Clouds: scattered clouds at 2000 feet AGL
Text:
Forecast period:1200 to 1800 UTC 20 February 2019
Forecast type:TEMPORARY: The following changes expected for less than half the time period
Visibility: 5 sm ( 8 km)
Ceiling:1800 feet AGL
Clouds: broken clouds at 1800 feet AGL
Weather:SHRA (rain showers)

TAF

Data at: 1120 UTC 20 Feb 2019

TAF for:NVSG (Longana Arpt, --, NV) issued at 1000 UTC 20 Feb 2019
Text:TAF NVSG 201000Z 2012/2112 31510G20KT 9999 SCT020 INTER 2012/2018 8000 SHRA BKN018 OVC040
Forecast period:1200 UTC 20 February 2019 to 1200 UTC 21 February 2019
Forecast type:FROM: standard forecast or significant change
Winds:from the NW (315 degrees) at 12 MPH (10 knots; 5.1 m/s) gusting to 23 MPH (20 knots; 10.3 m/s)
Visibility:6 or more sm (10+ km)
Ceiling:at least 12,000 feet AGL
Clouds: scattered clouds at 2000 feet AGL
Text:
Forecast period:1200 to 1800 UTC 20 February 2019
Forecast type:TEMPORARY: The following changes expected for less than half the time period
Visibility: 5 sm ( 8 km)
Ceiling:1800 feet AGL
Clouds: broken clouds at 1800 feet AGL, overcast cloud deck at 4000 feet AGL
Weather:SHRA (rain showers)

TAF

Data at: 1120 UTC 20 Feb 2019

TAF for:NVSS (Santo/Pekoa Intl, --, NV) issued at 1000 UTC 20 Feb 2019
Text:TAF NVSS 201000Z 2012/2112 34010G20KT 9999 SCT020 INTER 2012/2018 8000 SHRA BKN018 OVC040
Forecast period:1200 UTC 20 February 2019 to 1200 UTC 21 February 2019
Forecast type:FROM: standard forecast or significant change
Winds:from the NNW (340 degrees) at 12 MPH (10 knots; 5.1 m/s) gusting to 23 MPH (20 knots; 10.3 m/s)
Visibility:6 or more sm (10+ km)
Ceiling:at least 12,000 feet AGL
Clouds: scattered clouds at 2000 feet AGL
Text:
Forecast period:1200 to 1800 UTC 20 February 2019
Forecast type:TEMPORARY: The following changes expected for less than half the time period
Visibility: 5 sm ( 8 km)
Ceiling:1800 feet AGL
Clouds: broken clouds at 1800 feet AGL, overcast cloud deck at 4000 feet AGL
Weather:SHRA (rain showers)

TAF

Data at: 1120 UTC 20 Feb 2019

TAF for:NVSL (Malekula/Lamap, --, NV) issued at 1000 UTC 20 Feb 2019
Text:TAF NVSL 201000Z 2012/2112 34010G20KT 9999 SCT020 INTER 2012/2018 8000 SHRA BKN018 OVC040
Forecast period:1200 UTC 20 February 2019 to 1200 UTC 21 February 2019
Forecast type:FROM: standard forecast or significant change
Winds:from the NNW (340 degrees) at 12 MPH (10 knots; 5.1 m/s) gusting to 23 MPH (20 knots; 10.3 m/s)
Visibility:6 or more sm (10+ km)
Ceiling:at least 12,000 feet AGL
Clouds: scattered clouds at 2000 feet AGL
Text:
Forecast period:1200 to 1800 UTC 20 February 2019
Forecast type:TEMPORARY: The following changes expected for less than half the time period
Visibility: 5 sm ( 8 km)
Ceiling:1800 feet AGL
Clouds: broken clouds at 1800 feet AGL, overcast cloud deck at 4000 feet AGL
Weather:SHRA (rain showers)

TAF

Data at: 1120 UTC 20 Feb 2019

TAF for:NVSP (Norsup Arpt, --, NV) issued at 1000 UTC 20 Feb 2019
Text:TAF NVSP 201000Z 2012/2112 34010G20KT 9999 SCT020 INTER 2012/2018 8000 SHRA BKN018 OVC040
Forecast period:1200 UTC 20 February 2019 to 1200 UTC 21 February 2019
Forecast type:FROM: standard forecast or significant change
Winds:from the NNW (340 degrees) at 12 MPH (10 knots; 5.1 m/s) gusting to 23 MPH (20 knots; 10.3 m/s)
Visibility:6 or more sm (10+ km)
Ceiling:at least 12,000 feet AGL
Clouds: scattered clouds at 2000 feet AGL
Text:
Forecast period:1200 to 1800 UTC 20 February 2019
Forecast type:TEMPORARY: The following changes expected for less than half the time period
Visibility: 5 sm ( 8 km)
Ceiling:1800 feet AGL
Clouds: broken clouds at 1800 feet AGL, overcast cloud deck at 4000 feet AGL
Weather:SHRA (rain showers)

TAF

Data at: 1120 UTC 20 Feb 2019

TAF for:NVVV (Efate/Bauerfield Int, --, NV) issued at 1000 UTC 20 Feb 2019
Text:TAF NVVV 201000Z 2012/2112 36010KT 9999 SCT020 INTER 2012/2018 8000 SHRA BKN018 OVC040
Forecast period:1200 UTC 20 February 2019 to 1200 UTC 21 February 2019
Forecast type:FROM: standard forecast or significant change
Winds:from the N (360 degrees) at 12 MPH (10 knots; 5.1 m/s)
Visibility:6 or more sm (10+ km)
Ceiling:at least 12,000 feet AGL
Clouds: scattered clouds at 2000 feet AGL
Text:
Forecast period:1200 to 1800 UTC 20 February 2019
Forecast type:TEMPORARY: The following changes expected for less than half the time period
Visibility: 5 sm ( 8 km)
Ceiling:1800 feet AGL
Clouds: broken clouds at 1800 feet AGL, overcast cloud deck at 4000 feet AGL
Weather:SHRA (rain showers)

TAF

Data at: 1120 UTC 20 Feb 2019

TAF for:NVVW (Tanna Arpt, --, NV) issued at 1000 UTC 20 Feb 2019
Text:TAF NVVW 201000Z 2012/2112 02010G20KT 9999 SCT020 INTER 2012/2018 8000 SHRA BKN018 OVC040
Forecast period:1200 UTC 20 February 2019 to 1200 UTC 21 February 2019
Forecast type:FROM: standard forecast or significant change
Winds:from the NNE (20 degrees) at 12 MPH (10 knots; 5.1 m/s) gusting to 23 MPH (20 knots; 10.3 m/s)
Visibility:6 or more sm (10+ km)
Ceiling:at least 12,000 feet AGL
Clouds: scattered clouds at 2000 feet AGL
Text:
Forecast period:1200 to 1800 UTC 20 February 2019
Forecast type:TEMPORARY: The following changes expected for less than half the time period
Visibility: 5 sm ( 8 km)
Ceiling:1800 feet AGL
Clouds: broken clouds at 1800 feet AGL, overcast cloud deck at 4000 feet AGL
Weather:SHRA (rain showers)

TAF

Data at: 1120 UTC 20 Feb 2019

TAF for:NVVA (Aneityum/Mystery Isl, --, NV) issued at 1000 UTC 20 Feb 2019
Text:TAF NVVA 201000Z 2012/2112 01010G20KT 9999 SCT020 INTER 2012/2018 8000 SHRA BKN018 OVC040
Forecast period:1200 UTC 20 February 2019 to 1200 UTC 21 February 2019
Forecast type:FROM: standard forecast or significant change
Winds:from the N (10 degrees) at 12 MPH (10 knots; 5.1 m/s) gusting to 23 MPH (20 knots; 10.3 m/s)
Visibility:6 or more sm (10+ km)
Ceiling:at least 12,000 feet AGL
Clouds: scattered clouds at 2000 feet AGL
Text:
Forecast period:1200 to 1800 UTC 20 February 2019
Forecast type:TEMPORARY: The following changes expected for less than half the time period
Visibility: 5 sm ( 8 km)
Ceiling:1800 feet AGL
Clouds: broken clouds at 1800 feet AGL, overcast cloud deck at 4000 feet AGL
Weather:SHRA (rain showers)

TAF

Data at: 1120 UTC 20 Feb 2019

TAF NVVV 201000Z 2012/2112 36010KT 9999 SCT020 INTER 2012/2018 8000 SHRA BKN018 OVC040
TAF NVSC 201000Z 2012/2112 31510G20KT 9999 SCT020 INTER 2012/2018 8000 SHRA BKN018
TAF NVSG 201000Z 2012/2112 31510G20KT 9999 SCT020 INTER 2012/2018 8000 SHRA BKN018 OVC040
TAF NVSS 201000Z 2012/2112 34010G20KT 9999 SCT020 INTER 2012/2018 8000 SHRA BKN018 OVC040
TAF NVSL 201000Z 2012/2112 34010G20KT 9999 SCT020 INTER 2012/2018 8000 SHRA BKN018 OVC040
TAF NVSP 201000Z 2012/2112 34010G20KT 9999 SCT020 INTER 2012/2018 8000 SHRA BKN018 OVC040
TAF NVVW 201000Z 2012/2112 02010G20KT 9999 SCT020 INTER 2012/2018 8000 SHRA BKN018 OVC040
TAF NVVA 201000Z 2012/2112 01010G20KT 9999 SCT020 INTER 2012/2018 8000 SHRA BKN018 OVC040